createdAt,value
2018-07-15T00:00:29.717Z,99927.17
2018-07-15T00:03:00.193Z,99922.34
2018-07-15T00:05:30.305Z,99929.22
2018-07-15T00:08:00.361Z,99927.59
2018-07-15T00:10:30.809Z,99926.42
2018-07-15T00:13:00.609Z,99920.09
2018-07-15T00:15:30.695Z,99917.40
2018-07-15T00:18:00.754Z,99914.22
2018-07-15T00:20:31.061Z,99924.12
2018-07-15T00:23:01.121Z,99917.66
2018-07-15T00:25:31.024Z,99915.48
2018-07-15T00:28:01.524Z,99915.70
2018-07-15T00:30:31.666Z,99922.32
2018-07-15T00:33:01.875Z,99916.38
2018-07-15T00:35:31.921Z,99918.88
2018-07-15T00:38:01.962Z,99913.22
2018-07-15T00:40:32.445Z,99914.31
2018-07-15T00:43:02.489Z,99918.50
2018-07-15T00:45:32.546Z,99913.45
2018-07-15T00:48:02.585Z,99910.64
2018-07-15T00:50:32.409Z,99911.69
2018-07-15T00:53:02.458Z,99913.88
2018-07-15T00:55:32.505Z,99910.22
2018-07-15T00:58:02.586Z,99908.94
2018-07-15T01:00:37.805Z,99909.13
2018-07-15T01:03:07.665Z,99906.97
2018-07-15T01:05:37.753Z,99906.12
2018-07-15T01:08:08.222Z,99901.54
2018-07-15T01:10:38.285Z,99911.69
2018-07-15T01:13:08.341Z,99911.56
2018-07-15T01:15:38.405Z,99909.94
2018-07-15T01:18:08.220Z,99911.28
2018-07-15T01:20:38.684Z,99914.16
2018-07-15T01:23:08.776Z,99918.10
2018-07-15T01:25:38.948Z,99908.12
2018-07-15T01:28:08.870Z,99909.89
2018-07-15T01:30:38.714Z,99909.80
2018-07-15T01:33:08.884Z,99909.53
2018-07-15T01:35:38.956Z,99905.23
2018-07-15T01:38:09.009Z,99905.95
2018-07-15T01:40:39.053Z,99913.32
2018-07-15T01:43:09.111Z,99916.53
2018-07-15T01:45:39.188Z,99913.62
2018-07-15T01:48:09.034Z,99908.86
2018-07-15T01:50:39.089Z,99908.20
2018-07-15T01:53:09.140Z,99918.02
2018-07-15T01:55:39.253Z,99917.64
2018-07-15T01:58:09.329Z,99916.95
2018-07-15T02:00:39.480Z,99923.48
2018-07-15T02:03:09.529Z,99920.29
2018-07-15T02:05:39.573Z,99925.05
2018-07-15T02:08:09.746Z,99922.84
2018-07-15T02:10:39.856Z,99926.84
2018-07-15T02:13:09.924Z,99923.08
2018-07-15T02:15:39.985Z,99924.80
2018-07-15T02:18:10.043Z,99923.86
2018-07-15T02:20:40.377Z,99927.05
2018-07-15T02:23:10.469Z,99925.37
2018-07-15T02:25:40.531Z,99930.59
2018-07-15T02:28:10.597Z,99935.94
2018-07-15T02:30:40.418Z,99933.00
2018-07-15T02:33:10.407Z,99938.14
2018-07-15T02:35:40.465Z,99940.11
2018-07-15T02:38:10.516Z,99938.95
2018-07-15T02:40:40.631Z,99944.30
2018-07-15T02:43:10.702Z,99945.64
2018-07-15T02:45:40.801Z,99939.45
2018-07-15T02:48:10.909Z,99940.14
2018-07-15T02:50:40.961Z,99932.55
2018-07-15T02:53:11.031Z,99942.91
2018-07-15T02:55:41.532Z,99942.21
2018-07-15T02:58:11.622Z,99943.31
2018-07-15T03:00:41.669Z,99943.60
2018-07-15T03:03:11.750Z,99942.42
2018-07-15T03:05:41.908Z,99944.91
2018-07-15T03:08:11.953Z,99942.86
2018-07-15T03:10:42.033Z,99942.20
2018-07-15T03:13:12.091Z,99946.77
2018-07-15T03:15:42.177Z,99944.66
2018-07-15T03:18:12.242Z,99945.91
2018-07-15T03:20:42.146Z,99948.94
2018-07-15T03:23:12.184Z,99948.65
2018-07-15T03:25:42.242Z,99948.08
2018-07-15T03:28:12.337Z,99947.35
2018-07-15T03:30:42.382Z,99947.42
2018-07-15T03:33:12.453Z,99944.25
2018-07-15T03:35:42.498Z,99950.22
2018-07-15T03:38:12.801Z,99954.17
2018-07-15T03:40:42.933Z,99950.05
2018-07-15T03:43:13.005Z,99960.25
2018-07-15T03:45:43.057Z,99957.07
2018-07-15T03:48:13.140Z,99962.86
2018-07-15T03:50:43.221Z,99964.60
2018-07-15T03:53:13.277Z,99964.60
2018-07-15T03:55:43.342Z,99963.87
2018-07-15T03:58:13.445Z,99971.42
2018-07-15T04:00:43.543Z,99968.09
2018-07-15T04:03:13.646Z,99961.50
2018-07-15T04:05:43.449Z,99964.34
2018-07-15T04:08:13.537Z,99965.97
2018-07-15T04:10:43.710Z,99960.55
2018-07-15T04:13:13.749Z,99959.95
2018-07-15T04:15:43.637Z,99963.70
2018-07-15T04:18:13.705Z,99958.02
2018-07-15T04:20:43.980Z,99955.02
2018-07-15T04:23:14.037Z,99960.34
2018-07-15T04:25:43.803Z,99969.98
2018-07-15T04:28:13.935Z,99967.85
2018-07-15T04:30:44.009Z,99977.51
2018-07-15T04:33:14.105Z,99974.48
2018-07-15T04:35:44.162Z,99975.34
2018-07-15T04:38:14.234Z,99971.42
2018-07-15T04:40:44.327Z,99965.81
2018-07-15T04:43:14.365Z,99962.45
2018-07-15T04:45:44.481Z,99955.73
2018-07-15T04:48:14.520Z,99966.39
2018-07-15T04:50:44.573Z,99961.12
2018-07-15T04:53:14.633Z,99964.55
2018-07-15T04:55:44.677Z,99960.43
2018-07-15T04:58:14.754Z,99967.83
2018-07-15T05:00:44.785Z,99973.45
2018-07-15T05:03:14.829Z,99970.45
2018-07-15T05:05:44.857Z,99971.37
2018-07-15T05:08:14.907Z,99973.53
2018-07-15T05:10:44.697Z,99975.61
2018-07-15T05:13:14.758Z,99979.36
2018-07-15T05:15:44.538Z,99977.38
2018-07-15T05:18:15.161Z,99985.09
2018-07-15T05:20:45.866Z,99982.20
2018-07-15T05:23:16.530Z,99980.30
2018-07-15T05:25:47.148Z,99983.40
2018-07-15T05:28:17.832Z,99976.94
2018-07-15T05:30:48.453Z,99979.17
2018-07-15T05:33:19.140Z,99982.42
2018-07-15T05:35:49.769Z,99991.80
2018-07-15T05:38:20.454Z,99981.23
2018-07-15T05:40:51.071Z,99985.35
2018-07-15T05:43:21.785Z,99989.94
2018-07-15T05:45:52.665Z,99988.60
2018-07-15T05:48:23.314Z,99992.11
2018-07-15T05:50:53.950Z,99994.05
2018-07-15T05:53:24.718Z,99998.66
2018-07-15T05:55:55.437Z,99995.88
2018-07-15T05:58:26.089Z,99997.66
2018-07-15T06:00:56.744Z,99995.44
2018-07-15T06:03:27.429Z,99994.27
2018-07-15T06:05:58.077Z,100001.46
2018-07-15T06:08:28.525Z,99997.82
2018-07-15T06:10:59.157Z,99997.69
2018-07-15T06:13:29.789Z,99999.90
2018-07-15T06:16:00.462Z,99995.74
2018-07-15T06:18:31.141Z,100005.06
2018-07-15T06:21:01.621Z,100002.29
2018-07-15T06:23:31.921Z,100003.07
2018-07-15T06:26:02.676Z,100007.32
2018-07-15T06:28:33.130Z,100008.15
2018-07-15T06:31:03.547Z,100004.58
2018-07-15T06:33:34.101Z,99999.35
2018-07-15T06:36:04.253Z,100004.95
2018-07-15T06:38:34.586Z,100004.76
2018-07-15T06:41:05.049Z,99997.55
2018-07-15T06:43:35.399Z,100000.76
2018-07-15T06:46:05.817Z,100002.27
2018-07-15T06:48:36.225Z,100007.60
2018-07-15T06:51:06.780Z,99994.56
2018-07-15T06:53:37.264Z,99998.05
2018-07-15T06:56:07.941Z,99999.81
2018-07-15T06:58:38.307Z,99994.73
2018-07-15T07:01:08.649Z,99993.06
2018-07-15T07:03:39.087Z,99995.56
2018-07-15T07:06:09.137Z,99997.36
2018-07-15T07:08:39.457Z,99994.02
2018-07-15T07:11:09.853Z,100005.39
2018-07-15T07:13:40.197Z,99993.83
2018-07-15T07:16:10.577Z,99989.61
2018-07-15T07:18:40.902Z,99990.20
2018-07-15T07:21:11.398Z,99987.41
2018-07-15T07:23:41.734Z,99991.34
2018-07-15T07:26:12.196Z,99991.75
2018-07-15T07:28:42.610Z,99996.70
2018-07-15T07:31:12.985Z,99994.28
2018-07-15T07:33:43.327Z,99995.85
2018-07-15T07:36:13.487Z,99992.78
2018-07-15T07:38:44.087Z,99995.59
2018-07-15T07:41:14.746Z,99993.87
2018-07-15T07:43:45.142Z,99996.34
2018-07-15T07:46:15.203Z,99999.18
2018-07-15T07:48:45.541Z,100002.69
2018-07-15T07:51:15.597Z,99998.25
2018-07-15T07:53:45.689Z,100002.45
2018-07-15T07:56:16.066Z,99995.02
2018-07-15T07:58:46.401Z,99994.43
2018-07-15T08:01:16.793Z,99989.42
2018-07-15T08:03:47.173Z,99986.61
2018-07-15T08:06:17.544Z,99990.34
2018-07-15T08:08:47.866Z,99989.14
2018-07-15T08:11:18.265Z,99985.44
2018-07-15T08:13:48.853Z,99978.52
2018-07-15T08:16:19.257Z,99977.91
2018-07-15T08:18:49.590Z,99977.56
2018-07-15T08:21:19.788Z,99976.14
2018-07-15T08:23:50.129Z,99973.75
2018-07-15T08:26:20.505Z,99972.02
2018-07-15T08:28:50.863Z,99979.78
2018-07-15T08:31:21.346Z,99973.74
2018-07-15T08:33:51.693Z,99969.39
2018-07-15T08:36:22.058Z,99967.13
2018-07-15T08:38:52.386Z,99964.16
2018-07-15T08:41:22.818Z,99971.02
2018-07-15T08:43:53.197Z,99965.30
2018-07-15T08:46:23.537Z,99962.24
2018-07-15T08:48:53.596Z,99966.55
2018-07-15T08:51:23.960Z,99965.14
2018-07-15T08:53:54.281Z,99961.78
2018-07-15T08:56:24.696Z,99958.36
2018-07-15T08:58:55.073Z,99954.38
2018-07-15T09:01:25.530Z,99944.22
2018-07-15T09:03:56.234Z,99943.57
2018-07-15T09:06:26.325Z,99940.58
2018-07-15T09:08:56.358Z,99954.34
2018-07-15T09:11:26.690Z,99948.09
2018-07-15T09:13:57.302Z,99945.00
2018-07-15T09:16:27.629Z,99944.77
2018-07-15T09:18:57.988Z,99946.67
2018-07-15T09:21:28.378Z,99937.95
2018-07-15T09:23:58.754Z,99939.87
2018-07-15T09:26:29.112Z,99937.84
2018-07-15T09:28:59.486Z,99934.56
2018-07-15T09:31:29.822Z,99939.10
2018-07-15T09:34:00.513Z,99949.30
2018-07-15T09:36:31.117Z,99945.75
2018-07-15T09:39:01.808Z,99941.82
2018-07-15T09:41:32.440Z,99934.45
2018-07-15T09:44:03.125Z,99919.91
2018-07-15T09:46:33.454Z,99937.20
2018-07-15T09:49:04.068Z,99928.50
2018-07-15T09:51:34.701Z,99933.36
2018-07-15T09:54:06.719Z,99929.66
2018-07-15T09:56:37.401Z,99930.05
2018-07-15T09:59:09.192Z,99939.19
2018-07-15T10:01:39.833Z,99933.76
2018-07-15T10:04:10.273Z,99924.91
2018-07-15T10:06:40.677Z,99928.31
2018-07-15T10:09:11.280Z,99932.42
2018-07-15T10:11:41.953Z,99933.17
2018-07-15T10:14:12.594Z,99922.20
2018-07-15T10:16:43.217Z,99925.39
2018-07-15T10:19:13.556Z,99929.36
2018-07-15T10:21:44.028Z,99926.16
2018-07-15T10:24:14.365Z,99927.64
2018-07-15T10:26:44.831Z,99917.01
2018-07-15T10:29:15.433Z,99922.06
2018-07-15T10:31:46.114Z,99920.59
2018-07-15T10:34:16.751Z,99919.72
2018-07-15T10:36:47.217Z,99914.36
2018-07-15T10:39:17.851Z,99919.40
2018-07-15T10:41:49.840Z,99913.50
2018-07-15T10:44:20.201Z,99908.19
2018-07-15T10:46:50.613Z,99911.75
2018-07-15T10:49:20.944Z,99908.20
2018-07-15T10:51:51.561Z,99904.95
2018-07-15T10:54:22.226Z,99903.09
2018-07-15T10:56:52.650Z,99899.30
2018-07-15T10:59:23.289Z,99906.25
2018-07-15T11:01:53.687Z,99900.67
2018-07-15T11:04:24.315Z,99896.88
2018-07-15T11:06:54.993Z,99897.55
2018-07-15T11:09:25.390Z,99897.27
2018-07-15T11:11:56.172Z,99896.88
2018-07-15T11:14:26.842Z,99890.64
2018-07-15T11:16:57.529Z,99888.51
2018-07-15T11:19:28.139Z,99888.51
2018-07-15T11:21:59.171Z,99893.14
2018-07-15T11:24:29.791Z,99888.19
2018-07-15T11:27:00.519Z,99891.75
2018-07-15T11:29:31.154Z,99878.66
2018-07-15T11:32:01.863Z,99873.41
2018-07-15T11:34:32.636Z,99878.03
2018-07-15T11:37:03.070Z,99876.80
2018-07-15T11:39:33.694Z,99875.64
2018-07-15T11:42:04.076Z,99876.06
2018-07-15T11:44:34.681Z,99869.44
2018-07-15T11:47:05.177Z,99874.75
2018-07-15T11:49:35.800Z,99866.76
2018-07-15T11:52:06.243Z,99867.34
2018-07-15T11:54:36.960Z,99867.84
2018-07-15T11:57:07.577Z,99862.50
2018-07-15T11:59:38.208Z,99860.06
2018-07-15T12:02:08.985Z,99860.78
2018-07-15T12:04:40.001Z,99860.66
2018-07-15T12:07:10.674Z,99852.23
2018-07-15T12:09:41.020Z,99852.23
2018-07-15T12:12:12.099Z,99848.78
2018-07-15T12:14:42.853Z,99844.98
2018-07-15T12:17:13.246Z,99840.06
2018-07-15T12:19:43.949Z,99838.59
2018-07-15T12:22:14.650Z,99829.70
2018-07-15T12:24:45.485Z,99824.95
2018-07-15T12:27:15.873Z,99831.02
2018-07-15T12:29:46.477Z,99833.02
2018-07-15T12:32:16.852Z,99832.45
2018-07-15T12:34:47.474Z,99830.77
2018-07-15T12:37:18.157Z,99830.12
2018-07-15T12:39:48.505Z,99823.58
2018-07-15T12:42:18.863Z,99817.34
2018-07-15T12:44:49.209Z,99814.36
2018-07-15T12:47:19.856Z,99813.16
2018-07-15T12:49:50.512Z,99807.09
2018-07-15T12:52:21.129Z,99803.69
2018-07-15T12:54:51.529Z,99803.69
2018-07-15T12:57:22.896Z,99800.80
2018-07-15T12:59:53.547Z,99796.36
2018-07-15T13:02:23.955Z,99796.27
2018-07-15T13:04:54.653Z,99787.08
2018-07-15T13:07:25.012Z,99789.30
2018-07-15T13:09:55.417Z,99778.64
2018-07-15T13:12:26.021Z,99781.58
2018-07-15T13:14:56.553Z,99784.38
2018-07-15T13:17:26.930Z,99774.45
2018-07-15T13:19:57.673Z,99767.30
2018-07-15T13:22:28.364Z,99763.14
2018-07-15T13:24:59.013Z,99765.14
2018-07-15T13:27:29.650Z,99767.09
2018-07-15T13:30:00.358Z,99764.12
2018-07-15T13:32:31.105Z,99764.78
2018-07-15T13:35:01.506Z,99764.30
2018-07-15T13:37:31.865Z,99759.61
2018-07-15T13:40:02.557Z,99755.08
2018-07-15T13:42:32.930Z,99757.91
2018-07-15T13:45:03.354Z,99752.31
2018-07-15T13:47:33.979Z,99746.26
2018-07-15T13:50:04.357Z,99751.27
2018-07-15T13:52:35.770Z,99748.41
2018-07-15T13:55:06.793Z,99750.36
2018-07-15T13:57:37.443Z,99743.34
2018-07-15T14:00:08.996Z,99748.89
2018-07-15T14:02:39.652Z,99744.96
2018-07-15T14:05:10.067Z,99748.61
2018-07-15T14:07:40.418Z,99740.94
2018-07-15T14:10:11.113Z,99737.88
2018-07-15T14:12:41.497Z,99742.47
2018-07-15T14:15:11.918Z,99738.19
2018-07-15T14:17:42.337Z,99739.47
2018-07-15T14:20:12.733Z,99735.92
2018-07-15T14:22:43.141Z,99734.92
2018-07-15T14:25:13.587Z,99733.16
2018-07-15T14:27:43.920Z,99725.25
2018-07-15T14:30:14.284Z,99730.48
2018-07-15T14:32:44.653Z,99724.02
2018-07-15T14:35:15.017Z,99721.97
2018-07-15T14:37:45.527Z,99725.06
2018-07-15T14:40:16.277Z,99717.72
2018-07-15T14:42:46.675Z,99724.81
2018-07-15T14:45:17.375Z,99715.77
2018-07-15T14:47:47.795Z,99712.55
2018-07-15T14:50:18.148Z,99709.56
2018-07-15T14:52:48.657Z,99715.70
2018-07-15T14:55:19.293Z,99706.48
2018-07-15T14:57:49.714Z,99716.91
2018-07-15T15:00:20.068Z,99711.00
2018-07-15T15:02:50.514Z,99715.45
2018-07-15T15:05:21.131Z,99711.20
2018-07-15T15:07:51.531Z,99711.69
2018-07-15T15:10:21.853Z,99711.78
2018-07-15T15:12:52.261Z,99709.53
2018-07-15T15:15:22.642Z,99713.83
2018-07-15T15:17:53.046Z,99712.46
2018-07-15T15:20:23.531Z,99708.34
2018-07-15T15:22:53.925Z,99704.14
2018-07-15T15:25:24.334Z,99705.34
2018-07-15T15:27:55.164Z,99701.55
2018-07-15T15:30:25.629Z,99701.97
2018-07-15T15:32:55.953Z,99703.82
2018-07-15T15:35:26.394Z,99701.31
2018-07-15T15:37:56.733Z,99705.67
2018-07-15T15:40:27.053Z,99709.46
2018-07-15T15:42:57.409Z,99710.03
2018-07-15T15:45:27.744Z,99702.55
2018-07-15T15:47:58.153Z,99708.16
2018-07-15T15:50:28.474Z,99701.77
2018-07-15T15:52:58.796Z,99705.02
2018-07-15T15:55:29.130Z,99694.43
2018-07-15T15:57:59.541Z,99693.72
2018-07-15T16:00:29.934Z,99689.36
2018-07-15T16:03:00.289Z,99687.98
2018-07-15T16:05:30.685Z,99689.84
2018-07-15T16:08:00.997Z,99691.92
2018-07-15T16:10:31.452Z,99693.00
2018-07-15T16:13:01.777Z,99686.95
2018-07-15T16:15:32.185Z,99688.61
2018-07-15T16:18:02.541Z,99683.88
2018-07-15T16:20:33.190Z,99680.08
2018-07-15T16:23:04.093Z,99674.41
2018-07-15T16:25:34.483Z,99680.80
2018-07-15T16:28:04.839Z,99678.77
2018-07-15T16:30:35.248Z,99681.67
2018-07-15T16:33:06.285Z,99677.95
2018-07-15T16:35:55.359Z,99680.06
2018-07-15T16:38:25.903Z,99675.77
2018-07-15T16:40:56.582Z,99680.86
2018-07-15T16:43:26.918Z,99676.61
2018-07-15T16:45:57.399Z,99676.84
2018-07-15T16:48:27.736Z,99678.67
2018-07-15T16:50:58.809Z,99675.92
2018-07-15T16:53:29.169Z,99680.60
2018-07-15T16:55:59.516Z,99677.46
2018-07-15T16:58:29.883Z,99677.03
2018-07-15T17:01:00.342Z,99669.59
2018-07-15T17:03:30.673Z,99677.81
2018-07-15T17:06:01.085Z,99672.50
2018-07-15T17:08:31.443Z,99677.30
2018-07-15T17:11:01.767Z,99673.35
2018-07-15T17:13:32.121Z,99669.77
2018-07-15T17:16:02.483Z,99675.47
2018-07-15T17:18:32.843Z,99672.13
2018-07-15T17:21:03.173Z,99675.14
2018-07-15T17:23:33.541Z,99670.79
2018-07-15T17:26:03.921Z,99677.03
2018-07-15T17:28:34.254Z,99677.03
2018-07-15T17:31:04.690Z,99679.20
2018-07-15T17:33:35.059Z,99676.66
2018-07-15T17:36:05.648Z,99677.53
2018-07-15T17:38:36.017Z,99673.56
2018-07-15T17:41:06.438Z,99678.39
2018-07-15T17:43:36.794Z,99679.13
2018-07-15T17:46:07.310Z,99674.39
2018-07-15T17:48:37.665Z,99672.77
2018-07-15T17:51:08.084Z,99674.31
2018-07-15T17:53:38.416Z,99675.11
2018-07-15T17:56:08.805Z,99674.55
2018-07-15T17:58:39.307Z,99669.81
2018-07-15T18:01:09.868Z,99671.92
2018-07-15T18:03:40.278Z,99670.93
2018-07-15T18:06:10.905Z,99670.89
2018-07-15T18:08:41.299Z,99670.52
2018-07-15T18:11:11.949Z,99675.23
2018-07-15T18:13:42.301Z,99672.20
2018-07-15T18:16:13.120Z,99674.52
2018-07-15T18:18:43.801Z,99674.15
2018-07-15T18:21:14.146Z,99682.77
2018-07-15T18:23:45.006Z,99684.42
2018-07-15T18:26:15.346Z,99683.19
2018-07-15T18:28:45.758Z,99682.03
2018-07-15T18:31:16.132Z,99684.75
2018-07-15T18:33:45.895Z,99691.78
2018-07-15T18:36:16.341Z,99691.71
2018-07-15T18:38:46.162Z,99695.67
2018-07-15T18:41:16.633Z,99696.08
2018-07-15T18:43:47.049Z,99693.70
2018-07-15T18:46:17.440Z,99693.89
2018-07-15T18:48:47.770Z,99691.06
2018-07-15T18:51:18.177Z,99696.09
2018-07-15T18:53:48.523Z,99698.39
2018-07-15T18:56:18.888Z,99697.42
2018-07-15T18:58:49.251Z,99696.48
2018-07-15T19:01:19.130Z,99697.92
2018-07-15T19:03:49.286Z,99702.38
2018-07-15T19:06:19.593Z,99700.05
2018-07-15T19:08:49.454Z,99701.80
2018-07-15T19:11:19.349Z,99705.14
2018-07-15T19:13:49.304Z,99712.84
2018-07-15T19:16:19.896Z,99713.16
2018-07-15T19:18:49.846Z,99711.59
2018-07-15T19:21:20.346Z,99716.30
2018-07-15T19:23:50.628Z,99715.53
2018-07-15T19:26:20.465Z,99721.83
2018-07-15T19:28:50.317Z,99727.30
2018-07-15T19:31:20.566Z,99717.02
2018-07-15T19:33:50.759Z,99720.07
2018-07-15T19:36:20.664Z,99720.15
2018-07-15T19:38:50.497Z,99722.31
2018-07-15T19:41:20.384Z,99716.06
2018-07-15T19:43:50.462Z,99713.92
2018-07-15T19:46:20.340Z,99715.34
2018-07-15T19:48:50.196Z,99722.72
2018-07-15T19:51:20.124Z,99723.80
2018-07-15T19:53:49.955Z,99722.48
2018-07-15T19:56:19.738Z,99717.63
2018-07-15T19:58:49.656Z,99727.65
2018-07-15T20:01:19.620Z,99724.42
2018-07-15T20:03:49.587Z,99723.64
2018-07-15T20:06:19.437Z,99722.80
2018-07-15T20:08:49.205Z,99716.83
2018-07-15T20:11:19.396Z,99723.36
2018-07-15T20:13:50.163Z,99711.97
2018-07-15T20:16:20.314Z,99718.44
2018-07-15T20:18:50.085Z,99715.74
2018-07-15T20:21:19.860Z,99715.20
2018-07-15T20:23:49.735Z,99713.87
2018-07-15T20:26:19.622Z,99716.28
2018-07-15T20:28:49.409Z,99723.89
2018-07-15T20:31:19.281Z,99720.36
2018-07-15T20:33:49.064Z,99725.23
2018-07-15T20:36:18.833Z,99724.13
2018-07-15T20:38:48.619Z,99721.70
2018-07-15T20:41:18.480Z,99722.52
2018-07-15T20:43:48.268Z,99723.04
2018-07-15T20:46:18.067Z,99725.76
2018-07-15T20:48:47.838Z,99725.99
2018-07-15T20:51:17.614Z,99724.53
2018-07-15T20:53:47.442Z,99717.70
2018-07-15T20:56:17.304Z,99720.91
2018-07-15T20:58:47.263Z,99716.77
2018-07-15T21:01:17.061Z,99723.75
2018-07-15T21:03:46.964Z,99725.28
2018-07-15T21:06:16.774Z,99725.00
2018-07-15T21:08:46.553Z,99724.73
2018-07-15T21:11:16.717Z,99728.08
2018-07-15T21:13:46.475Z,99726.78
2018-07-15T21:16:16.237Z,99728.13
2018-07-15T21:18:46.057Z,99722.95
2018-07-15T21:21:15.853Z,99725.23
2018-07-15T21:23:45.669Z,99723.14
2018-07-15T21:26:15.435Z,99722.33
2018-07-15T21:28:45.252Z,99717.39
2018-07-15T21:31:15.313Z,99714.38
2018-07-15T21:33:45.092Z,99716.77
2018-07-15T21:36:14.845Z,99722.09
2018-07-15T21:38:44.660Z,99724.84
2018-07-15T21:41:14.782Z,99727.17
2018-07-15T21:43:44.549Z,99730.00
2018-07-15T21:46:14.313Z,99735.55
2018-07-15T21:48:44.090Z,99738.45
2018-07-15T21:51:13.929Z,99735.13
2018-07-15T21:53:43.919Z,99729.91
2018-07-15T21:56:13.955Z,99734.14
2018-07-15T21:58:43.775Z,99738.92
2018-07-15T22:01:13.894Z,99733.17
2018-07-15T22:03:43.652Z,99736.70
2018-07-15T22:06:24.649Z,99742.36
2018-07-15T22:09:05.556Z,99739.31
2018-07-15T22:11:35.465Z,99742.23
2018-07-15T22:14:05.494Z,99746.29
2018-07-15T22:16:35.308Z,99741.44
2018-07-15T22:19:05.100Z,99742.80
2018-07-15T22:21:34.885Z,99727.62
2018-07-15T22:24:04.834Z,99744.95
2018-07-15T22:26:34.898Z,99745.50
2018-07-15T22:29:04.806Z,99748.73
2018-07-15T22:31:34.930Z,99748.59
2018-07-15T22:34:04.690Z,99747.95
2018-07-15T22:36:35.037Z,99746.34
2018-07-15T22:39:06.134Z,99741.73
2018-07-15T22:41:36.485Z,99746.86
2018-07-15T22:44:06.370Z,99749.09
2018-07-15T22:46:36.184Z,99747.97
2018-07-15T22:49:05.960Z,99751.69
2018-07-15T22:51:35.724Z,99745.56
2018-07-15T22:54:05.566Z,99753.23
2018-07-15T22:56:35.681Z,99750.66
2018-07-15T22:59:05.793Z,99762.42
2018-07-15T23:01:35.601Z,99760.41
2018-07-15T23:04:05.432Z,99764.34
2018-07-15T23:06:37.870Z,99760.23
2018-07-15T23:09:09.219Z,99758.30
2018-07-15T23:11:39.147Z,99759.29
2018-07-15T23:14:09.405Z,99752.75
2018-07-15T23:16:39.653Z,99746.65
2018-07-15T23:19:09.874Z,99752.55
2018-07-15T23:21:39.891Z,99750.84
2018-07-15T23:24:09.778Z,99747.59
2018-07-15T23:26:39.935Z,99745.53
2018-07-15T23:29:10.473Z,99744.59
2018-07-15T23:31:40.289Z,99744.15
2018-07-15T23:34:10.145Z,99742.80
2018-07-15T23:36:39.910Z,99732.01
2018-07-15T23:39:09.662Z,99734.47
2018-07-15T23:41:39.425Z,99731.30
2018-07-15T23:44:09.527Z,99726.55
2018-07-15T23:46:39.625Z,99727.17
2018-07-15T23:49:09.406Z,99715.20
2018-07-15T23:51:39.210Z,99716.91
2018-07-15T23:54:08.985Z,99723.97
2018-07-15T23:56:38.752Z,99722.11
2018-07-15T23:59:08.881Z,99719.34
